Time;durP1;ratioP1;P1;durP2;ratioP2;P2;SDS_P1;SDS_P2;PMS_P1;PMS_P2;Temp;Humidity;BMP_temperature;BMP_pressure;BME280_temperature;BME280_humidity;BME280_pressure;Samples;Min_cycle;Max_cycle;Signal;HPM_P1;HPM_P2
2022/09/13 00:00:04;;;;;;;;;;;24.90;97.80;;;;;;5093848;28;19908;-76
2022/09/13 00:02:29;;;;;;;;;;;25.10;97.70;;;;;;5093677;28;20391;-77
2022/09/13 00:04:55;;;;;;;;;;;25.00;98.70;;;;;;5093803;28;20314;-77
2022/09/13 00:07:20;;;;;;;;;;;25.00;98.90;;;;;;5093532;28;20069;-77
2022/09/13 00:09:46;;;;;;;;;;;25.00;99.30;;;;;;5093189;28;20288;-77
2022/09/13 00:12:12;;;;;;;;;;;25.00;99.40;;;;;;5093874;28;19915;-78
2022/09/13 00:14:37;;;;;;;;;;;25.00;98.40;;;;;;5093460;28;19997;-76
2022/09/13 00:17:03;;;;;;;;;;;24.90;98.50;;;;;;5093515;28;20367;-78
2022/09/13 00:19:28;;;;;;;;;;;24.80;97.20;;;;;;5093486;28;19958;-75
2022/09/13 00:21:54;;;;;;;;;;;24.90;96.90;;;;;;5093924;28;19908;-76
2022/09/13 00:24:19;;;;;;;;;;;24.90;96.30;;;;;;5093823;28;19915;-78
2022/09/13 00:26:45;;;;;;;;;;;24.90;96.30;;;;;;5093411;28;20257;-76
2022/09/13 00:29:11;;;;;;;;;;;24.80;96.20;;;;;;5093460;28;19954;-76
2022/09/13 00:31:36;;;;;;;;;;;24.80;96.40;;;;;;5092003;28;19908;-76
2022/09/13 00:34:02;;;;;;;;;;;24.70;97.10;;;;;;5094477;28;20419;-76
2022/09/13 00:36:28;;;;;;;;;;;24.60;99.90;;;;;;5097090;28;19962;-77
2022/09/13 00:38:53;;;;;;;;;;;24.20;99.90;;;;;;5097167;28;19940;-76
2022/09/13 00:41:20;;;;;;;;;;;23.90;99.90;;;;;;5097128;28;19991;-76
2022/09/13 00:43:47;;;;;;;;;;;23.90;99.90;;;;;;5096956;28;19948;-76
2022/09/13 00:46:33;;;;;;;;;;;23.80;99.90;;;;;;5097126;28;19972;-77
2022/09/13 00:49:01;;;;;;;;;;;23.50;99.90;;;;;;5096404;28;19908;-77
2022/09/13 00:51:27;;;;;;;;;;;23.70;99.90;;;;;;5096904;28;20283;-76
2022/09/13 00:53:55;;;;;;;;;;;23.90;99.90;;;;;;5096877;28;19915;-78
2022/09/13 00:56:26;;;;;;;;;;;23.90;99.90;;;;;;5097339;28;19919;-76
2022/09/13 00:58:57;;;;;;;;;;;24.00;99.90;;;;;;5096997;28;19977;-76
2022/09/13 01:01:25;;;;;;;;;;;24.10;99.90;;;;;;5096290;28;19908;-77
2022/09/13 01:03:50;;;;;;;;;;;24.20;99.90;;;;;;5096628;28;19908;-77
2022/09/13 01:06:18;;;;;;;;;;;24.30;99.90;;;;;;5096787;28;19958;-77
2022/09/13 01:08:47;;;;;;;;;;;24.30;99.90;;;;;;5095237;28;20318;-77
2022/09/13 01:11:24;;;;;;;;;;;24.40;99.50;;;;;;5096546;28;19908;-76
2022/09/13 01:13:50;;;;;;;;;;;24.40;98.70;;;;;;5096734;28;19931;-76
2022/09/13 01:16:15;;;;;;;;;;;24.50;98.90;;;;;;5096308;28;20364;-77
2022/09/13 01:18:41;;;;;;;;;;;24.50;99.70;;;;;;5096541;28;19918;-77
2022/09/13 01:21:25;;;;;;;;;;;24.60;99.90;;;;;;5096841;28;20377;-76
2022/09/13 01:24:03;;;;;;;;;;;24.60;99.90;;;;;;5094896;28;19908;-77
2022/09/13 01:26:46;;;;;;;;;;;24.40;99.90;;;;;;5096176;28;19955;-77
2022/09/13 01:29:21;;;;;;;;;;;24.40;99.90;;;;;;5096292;28;19919;-76
2022/09/13 01:31:55;;;;;;;;;;;24.40;99.90;;;;;;5096097;28;19908;-75
2022/09/13 01:34:39;;;;;;;;;;;24.30;99.90;;;;;;5095917;28;19908;-76
2022/09/13 01:37:20;;;;;;;;;;;24.30;99.90;;;;;;5096006;28;19909;-77
2022/09/13 01:39:57;;;;;;;;;;;24.30;99.90;;;;;;5094666;28;19908;-75
2022/09/13 01:42:22;;;;;;;;;;;24.30;99.90;;;;;;5096338;28;19915;-77
2022/09/13 01:44:51;;;;;;;;;;;24.20;99.90;;;;;;5095770;28;19916;-77
2022/09/13 01:47:19;;;;;;;;;;;24.10;99.90;;;;;;5095373;28;20005;-78
2022/09/13 01:49:45;;;;;;;;;;;24.10;99.90;;;;;;5095777;28;19908;-77
2022/09/13 01:52:16;;;;;;;;;;;24.20;99.90;;;;;;5095701;28;19962;-75
2022/09/13 01:54:45;;;;;;;;;;;24.10;99.90;;;;;;5095769;28;20018;-76
2022/09/13 01:57:11;;;;;;;;;;;24.00;99.90;;;;;;5096145;28;20377;-75
2022/09/13 01:59:48;;;;;;;;;;;23.90;99.90;;;;;;5095544;28;19915;-77
2022/09/13 02:02:20;;;;;;;;;;;23.80;99.90;;;;;;5095496;28;19914;-77
2022/09/13 02:04:49;;;;;;;;;;;23.50;99.90;;;;;;5095454;28;19912;-77
2022/09/13 02:07:26;;;;;;;;;;;23.40;99.90;;;;;;5095397;28;19912;-76
2022/09/13 02:10:05;;;;;;;;;;;23.40;99.90;;;;;;5095614;28;20425;-76
2022/09/13 02:12:32;;;;;;;;;;;23.60;99.90;;;;;;5095498;28;19987;-77
2022/09/13 02:15:02;;;;;;;;;;;23.70;99.90;;;;;;5095207;28;19912;-76
2022/09/13 02:17:29;;;;;;;;;;;23.60;99.90;;;;;;5095458;28;19977;-76
2022/09/13 02:19:57;;;;;;;;;;;23.80;99.90;;;;;;5095184;28;20455;-75
2022/09/13 02:22:26;;;;;;;;;;;23.80;99.90;;;;;;5095209;28;19943;-78
2022/09/13 02:24:53;;;;;;;;;;;23.80;99.90;;;;;;5095143;28;20403;-75
2022/09/13 02:27:20;;;;;;;;;;;23.90;99.90;;;;;;5095060;28;19957;-77
2022/09/13 02:29:47;;;;;;;;;;;23.60;99.90;;;;;;5093704;28;20426;-76
2022/09/13 02:32:17;;;;;;;;;;;23.40;99.90;;;;;;5094970;28;19947;-78
2022/09/13 02:34:54;;;;;;;;;;;23.20;99.90;;;;;;5095234;28;19915;-76
2022/09/13 02:37:22;;;;;;;;;;;23.20;99.90;;;;;;5095070;28;19908;-76
2022/09/13 02:39:51;;;;;;;;;;;23.20;99.90;;;;;;5094902;28;19908;-76
2022/09/13 02:42:23;;;;;;;;;;;23.30;99.90;;;;;;5094750;28;19931;-76
2022/09/13 02:44:52;;;;;;;;;;;23.20;99.90;;;;;;5094643;28;19991;-77
2022/09/13 02:47:23;;;;;;;;;;;23.00;99.90;;;;;;5094505;28;19969;-76
2022/09/13 02:50:08;;;;;;;;;;;23.00;99.90;;;;;;5094565;28;19908;-77
2022/09/13 02:52:37;;;;;;;;;;;23.10;99.90;;;;;;5094518;28;19942;-78
2022/09/13 02:55:19;;;;;;;;;;;23.20;99.90;;;;;;5094529;28;19912;-77
2022/09/13 02:57:44;;;;;;;;;;;23.10;99.90;;;;;;5094455;28;19961;-77
2022/09/13 03:00:10;;;;;;;;;;;23.00;99.90;;;;;;5094374;28;19991;-77
2022/09/13 03:02:36;;;;;;;;;;;23.10;99.90;;;;;;5094392;28;19912;-75
2022/09/13 03:05:02;;;;;;;;;;;23.00;99.90;;;;;;5094345;28;19912;-76
2022/09/13 03:07:27;;;;;;;;;;;23.00;99.90;;;;;;5094472;28;19914;-76
2022/09/13 03:09:54;;;;;;;;;;;23.10;99.90;;;;;;5094352;28;19908;-76
2022/09/13 03:12:21;;;;;;;;;;;23.00;99.90;;;;;;5094188;28;19908;-78
2022/09/13 03:14:49;;;;;;;;;;;23.00;99.90;;;;;;5094246;28;19918;-77
2022/09/13 03:17:18;;;;;;;;;;;23.00;99.90;;;;;;5094127;28;19915;-77
2022/09/13 03:19:43;;;;;;;;;;;23.00;99.90;;;;;;5094176;28;19908;-76
2022/09/13 03:22:27;;;;;;;;;;;23.10;99.90;;;;;;5094095;28;20322;-76
2022/09/13 03:25:17;;;;;;;;;;;23.10;99.90;;;;;;5093999;28;20387;-75
2022/09/13 03:28:07;;;;;;;;;;;22.90;99.90;;;;;;5094063;28;20323;-77
2022/09/13 03:30:33;;;;;;;;;;;23.10;99.90;;;;;;5094478;28;19919;-76
2022/09/13 03:33:05;;;;;;;;;;;22.90;99.90;;;;;;5094163;28;19908;-76
2022/09/13 03:35:49;;;;;;;;;;;22.80;99.90;;;;;;5094082;28;19913;-75
2022/09/13 03:38:21;;;;;;;;;;;22.50;99.90;;;;;;5093832;28;19908;-75
2022/09/13 03:40:58;;;;;;;;;;;22.40;99.90;;;;;;5093823;28;19908;-76
2022/09/13 03:43:34;;;;;;;;;;;22.30;99.90;;;;;;5093980;28;20347;-77
2022/09/13 03:46:03;;;;;;;;;;;22.30;99.90;;;;;;5093764;28;19922;-77
2022/09/13 03:48:30;;;;;;;;;;;22.30;99.90;;;;;;5093793;28;20006;-77
2022/09/13 03:50:56;;;;;;;;;;;22.40;99.90;;;;;;5094068;28;19912;-77
2022/09/13 03:53:24;;;;;;;;;;;22.50;99.90;;;;;;5093901;28;19912;-77
2022/09/13 03:55:53;;;;;;;;;;;22.30;99.90;;;;;;5094115;28;19919;-76
2022/09/13 03:58:19;;;;;;;;;;;22.30;99.90;;;;;;5092710;28;20435;-78
2022/09/13 04:00:45;;;;;;;;;;;22.30;99.90;;;;;;5093671;28;20002;-76
2022/09/13 04:03:11;;;;;;;;;;;22.40;99.90;;;;;;5093664;28;19959;-76
2022/09/13 04:05:37;;;;;;;;;;;22.40;99.90;;;;;;5093691;28;20027;-77
2022/09/13 04:08:04;;;;;;;;;;;22.50;99.90;;;;;;5093586;28;19910;-77
2022/09/13 04:10:31;;;;;;;;;;;22.40;99.90;;;;;;5096830;28;19908;-76
2022/09/13 04:12:57;;;;;;;;;;;22.20;99.90;;;;;;5097594;28;19931;-77
2022/09/13 04:15:23;;;;;;;;;;;22.10;99.90;;;;;;5097522;28;19997;-77
2022/09/13 04:17:49;;;;;;;;;;;22.00;99.90;;;;;;5097632;28;19950;-77
2022/09/13 04:20:14;;;;;;;;;;;21.90;99.90;;;;;;5097638;28;20001;-76
2022/09/13 04:22:41;;;;;;;;;;;21.90;99.90;;;;;;5097448;28;19908;-77
2022/09/13 04:25:06;;;;;;;;;;;21.90;99.90;;;;;;5097619;28;19915;-77
2022/09/13 04:27:32;;;;;;;;;;;22.00;99.90;;;;;;5097379;28;19912;-76
2022/09/13 04:29:57;;;;;;;;;;;22.00;99.90;;;;;;5095984;28;19908;-76
2022/09/13 04:32:23;;;;;;;;;;;22.10;99.90;;;;;;5097258;28;20475;-78
2022/09/13 04:34:49;;;;;;;;;;;22.20;99.90;;;;;;5097165;28;19912;-77
2022/09/13 04:37:14;;;;;;;;;;;22.30;99.90;;;;;;5097497;28;19908;-77
2022/09/13 04:39:40;;;;;;;;;;;22.30;99.90;;;;;;5097187;28;19912;-78
2022/09/13 04:42:06;;;;;;;;;;;22.30;99.90;;;;;;5097106;28;19916;-77
2022/09/13 04:44:32;;;;;;;;;;;22.20;99.90;;;;;;5097556;28;19939;-77
2022/09/13 04:46:59;;;;;;;;;;;22.40;99.90;;;;;;5097012;28;19923;-76
2022/09/13 04:49:24;;;;;;;;;;;22.50;99.90;;;;;;5097081;28;20003;-78
2022/09/13 04:51:50;;;;;;;;;;;22.50;99.90;;;;;;5097014;28;20368;-77
2022/09/13 04:54:16;;;;;;;;;;;22.60;99.90;;;;;;5096851;28;19914;-78
2022/09/13 04:56:42;;;;;;;;;;;22.80;99.90;;;;;;5096830;28;19915;-75
2022/09/13 04:59:09;;;;;;;;;;;22.70;99.90;;;;;;5096634;28;19953;-77
2022/09/13 05:01:36;;;;;;;;;;;22.40;99.90;;;;;;5096683;28;19908;-76
2022/09/13 05:04:02;;;;;;;;;;;22.60;99.90;;;;;;5096488;28;20364;-76
2022/09/13 05:06:28;;;;;;;;;;;22.70;99.90;;;;;;5096613;28;19908;-77
2022/09/13 05:08:54;;;;;;;;;;;22.80;99.90;;;;;;5096368;28;20005;-77
2022/09/13 05:11:23;;;;;;;;;;;22.70;99.90;;;;;;5096339;28;19993;-77
2022/09/13 05:13:51;;;;;;;;;;;22.70;99.90;;;;;;5096426;28;19977;-77
2022/09/13 05:16:17;;;;;;;;;;;22.70;99.90;;;;;;5094608;28;19912;-78
2022/09/13 05:18:43;;;;;;;;;;;22.60;99.90;;;;;;5096181;28;19908;-75
2022/09/13 05:21:08;;;;;;;;;;;22.70;99.90;;;;;;5095742;28;20287;-78
2022/09/13 05:23:34;;;;;;;;;;;22.70;99.90;;;;;;5094892;28;19908;-77
2022/09/13 05:26:01;;;;;;;;;;;22.70;99.90;;;;;;5096340;28;19957;-77
2022/09/13 05:28:27;;;;;;;;;;;22.50;99.90;;;;;;5096269;28;20284;-77
2022/09/13 05:30:54;;;;;;;;;;;22.50;99.90;;;;;;5094863;28;19908;-76
2022/09/13 05:33:20;;;;;;;;;;;22.50;99.90;;;;;;5096355;28;19915;-76
2022/09/13 05:35:46;;;;;;;;;;;22.50;99.90;;;;;;5095984;28;19912;-77
2022/09/13 05:38:11;;;;;;;;;;;22.50;99.90;;;;;;5096072;28;19908;-77
2022/09/13 05:40:37;;;;;;;;;;;22.50;99.90;;;;;;5095968;28;19909;-77
2022/09/13 05:43:02;;;;;;;;;;;22.50;99.90;;;;;;5096225;28;19935;-77
2022/09/13 05:45:28;;;;;;;;;;;22.70;99.90;;;;;;5095616;28;19957;-77
2022/09/13 05:47:53;;;;;;;;;;;22.70;99.90;;;;;;5095771;28;19919;-76
2022/09/13 05:50:20;;;;;;;;;;;22.60;99.90;;;;;;5095969;28;20025;-78
2022/09/13 05:52:52;;;;;;;;;;;22.40;99.90;;;;;;5096088;28;20294;-75
2022/09/13 05:55:18;;;;;;;;;;;22.20;99.90;;;;;;5095302;28;19958;-76
2022/09/13 05:57:43;;;;;;;;;;;22.00;99.90;;;;;;5096140;28;19912;-76
2022/09/13 06:00:09;;;;;;;;;;;21.90;99.90;;;;;;5095488;28;20284;-76
2022/09/13 06:02:35;;;;;;;;;;;22.00;99.90;;;;;;5093814;28;19915;-77
2022/09/13 06:05:00;;;;;;;;;;;21.90;99.90;;;;;;5095641;28;19908;-76
2022/09/13 06:07:27;;;;;;;;;;;21.90;99.90;;;;;;5095705;28;19953;-77
2022/09/13 06:09:53;;;;;;;;;;;21.90;99.90;;;;;;5095507;28;20391;-76
2022/09/13 06:12:18;;;;;;;;;;;22.00;99.90;;;;;;5095472;28;19908;-77
2022/09/13 06:14:44;;;;;;;;;;;21.90;99.90;;;;;;5095179;28;19908;-77
2022/09/13 06:17:09;;;;;;;;;;;21.90;99.90;;;;;;5095684;28;19912;-77
2022/09/13 06:19:35;;;;;;;;;;;21.90;99.90;;;;;;5095192;28;20003;-76
2022/09/13 06:22:01;;;;;;;;;;;22.00;99.90;;;;;;5095120;28;19916;-75
2022/09/13 06:24:26;;;;;;;;;;;22.30;99.90;;;;;;5095121;28;19912;-76
2022/09/13 06:26:52;;;;;;;;;;;22.30;99.90;;;;;;5095042;28;19912;-76
2022/09/13 06:29:18;;;;;;;;;;;22.40;99.90;;;;;;5095403;28;19908;-76
2022/09/13 06:31:44;;;;;;;;;;;22.50;99.90;;;;;;5094140;28;20335;-78
2022/09/13 06:34:11;;;;;;;;;;;22.50;99.90;;;;;;5095014;28;19915;-76
2022/09/13 06:36:37;;;;;;;;;;;22.50;99.90;;;;;;5094812;28;19954;-77
2022/09/13 06:39:05;;;;;;;;;;;22.50;99.90;;;;;;5095209;28;19916;-77
2022/09/13 06:41:30;;;;;;;;;;;22.50;99.90;;;;;;5094808;28;19912;-75
2022/09/13 06:43:57;;;;;;;;;;;22.60;99.90;;;;;;5094671;28;19912;-77
2022/09/13 06:46:23;;;;;;;;;;;22.90;99.90;;;;;;5094491;28;19920;-77
2022/09/13 06:48:49;;;;;;;;;;;23.00;99.90;;;;;;5094697;28;19909;-78
2022/09/13 06:51:16;;;;;;;;;;;23.00;99.90;;;;;;5094766;28;19931;-76
2022/09/13 06:53:42;;;;;;;;;;;23.10;99.90;;;;;;5094572;28;19920;-77
2022/09/13 06:56:17;;;;;;;;;;;23.10;99.90;;;;;;5094486;28;19937;-78
2022/09/13 06:58:44;;;;;;;;;;;22.90;99.90;;;;;;5094991;28;20277;-76
2022/09/13 07:01:17;;;;;;;;;;;22.80;99.90;;;;;;5094764;28;19908;-77
2022/09/13 07:03:49;;;;;;;;;;;22.80;99.90;;;;;;5094432;28;20406;-76
2022/09/13 07:06:15;;;;;;;;;;;23.10;99.90;;;;;;5094358;28;19935;-76
2022/09/13 07:08:41;;;;;;;;;;;23.30;99.90;;;;;;5094277;28;19953;-78
2022/09/13 07:11:08;;;;;;;;;;;23.50;99.90;;;;;;5094327;28;20261;-77
2022/09/13 07:13:34;;;;;;;;;;;23.50;99.90;;;;;;5094248;28;19909;-77
2022/09/13 07:16:04;;;;;;;;;;;23.60;99.90;;;;;;5094208;28;19938;-75
2022/09/13 07:18:29;;;;;;;;;;;23.40;99.90;;;;;;5094193;28;19937;-77
2022/09/13 07:21:00;;;;;;;;;;;23.10;99.90;;;;;;5094075;28;20368;-76
2022/09/13 07:23:25;;;;;;;;;;;23.20;99.90;;;;;;5094353;28;19912;-77
2022/09/13 07:25:54;;;;;;;;;;;23.10;99.90;;;;;;5093831;28;20329;-75
2022/09/13 07:28:20;;;;;;;;;;;23.10;99.90;;;;;;5094047;28;20326;-76
2022/09/13 07:30:46;;;;;;;;;;;23.30;99.90;;;;;;5093972;28;19999;-75
2022/09/13 07:33:11;;;;;;;;;;;23.30;99.90;;;;;;5093964;28;19912;-78
2022/09/13 07:35:37;;;;;;;;;;;23.30;99.90;;;;;;5094141;28;19919;-77
2022/09/13 07:38:02;;;;;;;;;;;23.20;99.90;;;;;;5094013;28;19915;-76
2022/09/13 07:40:28;;;;;;;;;;;23.20;99.90;;;;;;5093939;28;20283;-75
2022/09/13 07:42:53;;;;;;;;;;;23.30;99.90;;;;;;5094104;28;19908;-77
2022/09/13 07:45:20;;;;;;;;;;;23.40;99.90;;;;;;5094121;28;19908;-78
2022/09/13 07:47:46;;;;;;;;;;;23.40;99.90;;;;;;5093455;28;19920;-77
2022/09/13 07:50:12;;;;;;;;;;;23.20;99.90;;;;;;5093728;28;19966;-75
2022/09/13 07:52:37;;;;;;;;;;;23.20;99.90;;;;;;5094270;28;19999;-77
2022/09/13 07:55:03;;;;;;;;;;;23.30;99.90;;;;;;5093851;28;19916;-77
2022/09/13 07:57:29;;;;;;;;;;;23.50;99.90;;;;;;5094403;28;19915;-76
2022/09/13 07:59:54;;;;;;;;;;;23.60;99.90;;;;;;5093682;28;20007;-77
2022/09/13 08:02:20;;;;;;;;;;;23.70;99.90;;;;;;5092392;28;19915;-77
2022/09/13 08:04:45;;;;;;;;;;;23.80;99.90;;;;;;5091767;28;19908;-77
2022/09/13 08:07:11;;;;;;;;;;;23.90;99.90;;;;;;5091736;28;19908;-77
2022/09/13 08:09:37;;;;;;;;;;;24.00;99.90;;;;;;5091627;28;20061;-78
2022/09/13 08:12:02;;;;;;;;;;;24.10;99.90;;;;;;5091635;28;19908;-75
2022/09/13 08:14:28;;;;;;;;;;;24.20;99.90;;;;;;5091643;28;19916;-77
2022/09/13 08:16:55;;;;;;;;;;;24.20;99.90;;;;;;5092085;28;19912;-75
2022/09/13 08:19:21;;;;;;;;;;;24.20;99.90;;;;;;5093690;28;20284;-78
2022/09/13 08:21:46;;;;;;;;;;;24.00;99.90;;;;;;5093593;28;19909;-76
2022/09/13 08:24:20;;;;;;;;;;;24.00;99.90;;;;;;5093436;28;19919;-77
2022/09/13 08:26:46;;;;;;;;;;;24.00;99.90;;;;;;5093799;28;19916;-75
2022/09/13 08:29:12;;;;;;;;;;;24.10;99.90;;;;;;5093461;28;19939;-78
2022/09/13 08:31:38;;;;;;;;;;;24.30;99.90;;;;;;5093283;28;19917;-77
2022/09/13 08:34:03;;;;;;;;;;;24.40;99.90;;;;;;5093417;28;20346;-77
2022/09/13 08:36:29;;;;;;;;;;;24.60;99.90;;;;;;5093389;28;19912;-76
2022/09/13 08:38:59;;;;;;;;;;;24.80;99.90;;;;;;5093351;28;19908;-76
2022/09/13 08:41:30;;;;;;;;;;;25.00;99.90;;;;;;5093596;28;19961;-77
2022/09/13 08:43:59;;;;;;;;;;;25.10;99.90;;;;;;5093205;28;19958;-78
2022/09/13 08:46:27;;;;;;;;;;;25.20;99.90;;;;;;5093312;28;19920;-77
2022/09/13 08:48:55;;;;;;;;;;;25.20;99.90;;;;;;5091949;28;19957;-76
2022/09/13 08:51:31;;;;;;;;;;;25.50;99.90;;;;;;5093205;28;19908;-76
2022/09/13 08:53:56;;;;;;;;;;;25.90;99.90;;;;;;5093372;28;20003;-78
2022/09/13 08:56:25;;;;;;;;;;;26.40;99.90;;;;;;5095830;28;20340;-77
2022/09/13 08:58:50;;;;;;;;;;;26.70;99.90;;;;;;5097409;28;19908;-76
2022/09/13 09:01:19;;;;;;;;;;;27.30;99.90;;;;;;5096764;28;19909;-77
2022/09/13 09:03:47;;;;;;;;;;;27.20;99.90;;;;;;5096880;28;20288;-78
2022/09/13 09:06:16;;;;;;;;;;;27.50;99.90;;;;;;5096562;28;19909;-78
2022/09/13 09:08:47;;;;;;;;;;;28.00;99.90;;;;;;5096717;28;19912;-78
2022/09/13 09:11:27;;;;;;;;;;;28.50;99.90;;;;;;5095279;28;19912;-78
2022/09/13 09:13:56;;;;;;;;;;;28.90;99.90;;;;;;5096974;28;19916;-78
2022/09/13 09:16:34;;;;;;;;;;;29.60;98.50;;;;;;5096373;28;19916;-77
2022/09/13 09:19:05;;;;;;;;;;;29.50;97.70;;;;;;5096608;28;19955;-78
2022/09/13 09:21:32;;;;;;;;;;;29.30;98.10;;;;;;5096876;28;19908;-78
2022/09/13 09:24:00;;;;;;;;;;;29.90;97.90;;;;;;5096763;28;19915;-76
2022/09/13 09:26:28;;;;;;;;;;;29.90;96.50;;;;;;5096417;28;19912;-77
2022/09/13 09:29:13;;;;;;;;;;;30.20;96.00;;;;;;5096176;28;19912;-78
2022/09/13 09:31:38;;;;;;;;;;;30.70;94.70;;;;;;5096156;28;19912;-76
2022/09/13 09:34:22;;;;;;;;;;;31.40;92.60;;;;;;5096124;28;19936;-78
2022/09/13 09:36:54;;;;;;;;;;;32.90;92.30;;;;;;5096137;28;19912;-75
2022/09/13 09:39:20;;;;;;;;;;;35.10;85.00;;;;;;5096096;28;20283;-76
2022/09/13 09:41:46;;;;;;;;;;;36.80;76.60;;;;;;5095973;28;19908;-75
2022/09/13 09:44:26;;;;;;;;;;;36.10;73.60;;;;;;5096050;28;20362;-76
2022/09/13 09:46:56;;;;;;;;;;;36.20;73.00;;;;;;5095826;28;20426;-74
2022/09/13 09:52:09;;;;;;;;;;;35.30;70.70;;;;;;5095826;28;19920;-76
2022/09/13 09:54:35;;;;;;;;;;;33.40;72.40;;;;;;5095757;28;19909;-75
2022/09/13 09:57:00;;;;;;;;;;;32.90;74.30;;;;;;5096154;28;19913;-75
2022/09/13 09:59:28;;;;;;;;;;;33.50;74.90;;;;;;5095591;28;20368;-77
2022/09/13 10:01:56;;;;;;;;;;;35.90;73.90;;;;;;5095578;28;19908;-76
2022/09/13 10:04:22;;;;;;;;;;;37.40;67.70;;;;;;5095552;28;20288;-77
2022/09/13 10:06:48;;;;;;;;;;;37.30;66.70;;;;;;5094191;28;19908;-76
2022/09/13 10:09:18;;;;;;;;;;;36.80;65.60;;;;;;5094143;28;20258;-76
2022/09/13 10:11:44;;;;;;;;;;;35.90;65.90;;;;;;5095815;28;19915;-77
2022/09/13 10:14:28;;;;;;;;;;;35.20;67.80;;;;;;5095440;28;19908;-75
2022/09/13 10:17:12;;;;;;;;;;;35.10;69.20;;;;;;5095221;28;19928;-75
2022/09/13 10:19:37;;;;;;;;;;;35.90;67.60;;;;;;5095214;28;19908;-75
2022/09/13 10:22:04;;;;;;;;;;;35.10;67.90;;;;;;5093834;28;19915;-74
2022/09/13 10:24:30;;;;;;;;;;;34.80;68.60;;;;;;5095100;28;20365;-77
2022/09/13 10:26:57;;;;;;;;;;;34.30;69.80;;;;;;5095072;28;19912;-75
2022/09/13 10:29:23;;;;;;;;;;;33.60;69.90;;;;;;5095278;28;20289;-76
2022/09/13 10:31:52;;;;;;;;;;;33.40;69.70;;;;;;5094989;28;19908;-74
2022/09/13 10:34:32;;;;;;;;;;;32.80;70.90;;;;;;5095076;28;19908;-74
2022/09/13 10:37:16;;;;;;;;;;;32.60;72.70;;;;;;5094849;28;19912;-75
2022/09/13 10:39:52;;;;;;;;;;;32.70;72.50;;;;;;5094999;28;20090;-74
2022/09/13 10:42:20;;;;;;;;;;;33.00;72.30;;;;;;5094975;28;19908;-76
2022/09/13 10:44:50;;;;;;;;;;;34.40;71.20;;;;;;5094680;28;19908;-76
2022/09/13 10:47:22;;;;;;;;;;;35.30;68.30;;;;;;5094519;28;19920;-77
2022/09/13 10:49:47;;;;;;;;;;;35.60;67.20;;;;;;5094647;28;19912;-75
2022/09/13 10:52:23;;;;;;;;;;;36.40;66.00;;;;;;5094785;28;19931;-77
2022/09/13 10:54:49;;;;;;;;;;;38.80;63.30;;;;;;5093220;28;20381;-77
2022/09/13 10:57:27;;;;;;;;;;;39.90;60.80;;;;;;5095106;28;19993;-77
2022/09/13 10:59:56;;;;;;;;;;;38.80;60.40;;;;;;5094660;28;20276;-78
2022/09/13 11:02:21;;;;;;;;;;;41.20;59.20;;;;;;5094639;28;19908;-76
2022/09/13 11:05:06;;;;;;;;;;;43.80;55.90;;;;;;5094358;28;19908;-78
2022/09/13 11:07:40;;;;;;;;;;;44.80;54.10;;;;;;5094771;28;19908;-78
2022/09/13 11:10:15;;;;;;;;;;;44.40;51.80;;;;;;5094611;28;19908;-76
2022/09/13 11:12:45;;;;;;;;;;;41.20;52.60;;;;;;5093003;28;19908;-75
2022/09/13 11:15:33;;;;;;;;;;;38.50;55.80;;;;;;5092851;28;19912;-75
2022/09/13 11:18:11;;;;;;;;;;;36.80;57.80;;;;;;5093836;28;19912;-76
2022/09/13 11:20:37;;;;;;;;;;;37.20;58.90;;;;;;5094224;28;19908;-77
2022/09/13 11:23:21;;;;;;;;;;;38.60;57.40;;;;;;5094130;28;19919;-76
2022/09/13 11:26:04;;;;;;;;;;;40.10;55.90;;;;;;5094056;28;20288;-78
2022/09/13 11:28:40;;;;;;;;;;;41.40;55.40;;;;;;5094052;28;19908;-75
2022/09/13 11:31:05;;;;;;;;;;;40.00;54.70;;;;;;5094078;28;20283;-78
2022/09/13 11:33:50;;;;;;;;;;;38.80;55.80;;;;;;5094143;28;19908;-76
2022/09/13 11:36:35;;;;;;;;;;;38.50;56.30;;;;;;5094050;28;19912;-75
2022/09/13 11:39:15;;;;;;;;;;;38.00;56.80;;;;;;5092569;28;19984;-75
2022/09/13 11:41:50;;;;;;;;;;;36.20;59.50;;;;;;5094374;28;19914;-75
2022/09/13 11:44:16;;;;;;;;;;;34.90;61.00;;;;;;5093793;28;19908;-75
2022/09/13 11:46:46;;;;;;;;;;;34.00;63.20;;;;;;5093603;28;19920;-74
2022/09/13 11:49:25;;;;;;;;;;;33.70;64.00;;;;;;5093874;28;20011;-75
2022/09/13 11:52:09;;;;;;;;;;;33.20;64.50;;;;;;5094037;28;20002;-75
2022/09/13 11:54:55;;;;;;;;;;;33.00;65.90;;;;;;5093777;28;19908;-77
2022/09/13 11:57:25;;;;;;;;;;;32.80;66.50;;;;;;5094455;28;20050;-75
2022/09/13 11:59:53;;;;;;;;;;;32.50;67.00;;;;;;5093736;28;20002;-75
2022/09/13 12:02:37;;;;;;;;;;;32.70;67.30;;;;;;5093962;28;19908;-75
2022/09/13 12:05:06;;;;;;;;;;;33.20;67.30;;;;;;5093729;28;19908;-75
2022/09/13 12:07:37;;;;;;;;;;;33.50;67.10;;;;;;5093475;28;19973;-74
2022/09/13 12:10:13;;;;;;;;;;;33.90;67.00;;;;;;5093538;28;19912;-75
2022/09/13 12:12:40;;;;;;;;;;;34.30;66.40;;;;;;5093672;28;19909;-75
2022/09/13 12:15:12;;;;;;;;;;;34.60;66.80;;;;;;5093468;28;19912;-77
2022/09/13 12:17:40;;;;;;;;;;;34.30;65.60;;;;;;5093932;28;19908;-75
2022/09/13 12:20:16;;;;;;;;;;;34.80;65.00;;;;;;5093458;28;19916;-76
2022/09/13 12:22:41;;;;;;;;;;;34.90;64.40;;;;;;5093589;28;20473;-76
2022/09/13 12:25:17;;;;;;;;;;;34.60;64.80;;;;;;5093507;28;19912;-77
2022/09/13 12:27:47;;;;;;;;;;;35.60;65.10;;;;;;5091899;28;19912;-76
2022/09/13 12:30:13;;;;;;;;;;;36.80;63.20;;;;;;5094654;28;19951;-77
2022/09/13 12:32:39;;;;;;;;;;;38.30;61.00;;;;;;5097378;28;19908;-77
2022/09/13 12:35:06;;;;;;;;;;;38.90;59.70;;;;;;5097137;28;19912;-76
2022/09/13 12:37:51;;;;;;;;;;;39.50;58.20;;;;;;5097193;28;19912;-75
2022/09/13 12:40:35;;;;;;;;;;;38.00;59.00;;;;;;5097145;28;20007;-75
2022/09/13 12:43:13;;;;;;;;;;;37.60;60.20;;;;;;5095672;28;20380;-77
2022/09/13 12:45:57;;;;;;;;;;;36.60;60.80;;;;;;5097042;28;19908;-77
2022/09/13 12:48:23;;;;;;;;;;;35.90;62.30;;;;;;5097256;28;19920;-76
2022/09/13 12:50:48;;;;;;;;;;;36.00;62.00;;;;;;5097164;28;19934;-75
2022/09/13 12:53:32;;;;;;;;;;;37.30;61.80;;;;;;5097157;28;19914;-78
2022/09/13 12:56:16;;;;;;;;;;;40.10;58.90;;;;;;5096964;28;20257;-78
2022/09/13 12:58:42;;;;;;;;;;;42.70;55.60;;;;;;5097317;28;19912;-77
2022/09/13 13:01:11;;;;;;;;;;;44.90;52.70;;;;;;5096818;28;19953;-76
2022/09/13 13:03:51;;;;;;;;;;;45.50;50.60;;;;;;5096944;28;19909;-76
2022/09/13 13:06:35;;;;;;;;;;;44.20;49.60;;;;;;5096867;28;19915;-76
2022/09/13 13:09:04;;;;;;;;;;;40.30;53.30;;;;;;5096584;28;19961;-77
2022/09/13 13:11:41;;;;;;;;;;;38.90;56.10;;;;;;5096506;28;20364;-75
2022/09/13 13:14:24;;;;;;;;;;;41.20;54.90;;;;;;5096405;28;19919;-75
2022/09/13 13:16:49;;;;;;;;;;;41.30;51.60;;;;;;5096688;28;20433;-75
2022/09/13 13:19:31;;;;;;;;;;;42.30;52.60;;;;;;5096615;28;19908;-76
2022/09/13 13:22:16;;;;;;;;;;;44.40;51.00;;;;;;5096578;28;19995;-77
2022/09/13 13:24:45;;;;;;;;;;;46.50;49.20;;;;;;5096371;28;19998;-76
2022/09/13 13:27:30;;;;;;;;;;;46.30;48.60;;;;;;5096723;28;19970;-75
2022/09/13 13:30:18;;;;;;;;;;;48.40;48.50;;;;;;5096372;28;20307;-76
2022/09/13 13:33:03;;;;;;;;;;;48.10;46.90;;;;;;5096048;28;19908;-79
2022/09/13 13:35:31;;;;;;;;;;;47.60;46.40;;;;;;5094821;28;19912;-77
2022/09/13 13:38:13;;;;;;;;;;;46.20;46.80;;;;;;5096267;28;20261;-78
2022/09/13 13:40:39;;;;;;;;;;;47.00;47.30;;;;;;5095858;28;19951;-76
2022/09/13 13:43:15;;;;;;;;;;;47.60;46.40;;;;;;5094750;28;20279;-76
2022/09/13 13:45:55;;;;;;;;;;;44.30;47.00;;;;;;5095891;28;20003;-78
2022/09/13 13:48:35;;;;;;;;;;;42.20;50.20;;;;;;5096199;28;20335;-75
2022/09/13 13:51:12;;;;;;;;;;;41.40;50.40;;;;;;5095882;28;19915;-75
2022/09/13 13:53:41;;;;;;;;;;;39.30;52.70;;;;;;5095993;28;19944;-77
2022/09/13 13:56:15;;;;;;;;;;;38.00;54.50;;;;;;5096103;28;19915;-75
2022/09/13 13:58:47;;;;;;;;;;;39.80;55.30;;;;;;5096181;28;19908;-77
2022/09/13 14:01:16;;;;;;;;;;;42.50;51.40;;;;;;5095757;28;19911;-76
2022/09/13 14:04:04;;;;;;;;;;;41.60;51.50;;;;;;5095645;28;19947;-76
2022/09/13 14:06:34;;;;;;;;;;;40.60;52.10;;;;;;5095776;28;19912;-75
2022/09/13 14:09:02;;;;;;;;;;;40.30;52.70;;;;;;5095447;28;19908;-77
2022/09/13 14:11:29;;;;;;;;;;;40.20;54.20;;;;;;5095566;28;20253;-77
2022/09/13 14:14:04;;;;;;;;;;;40.70;52.90;;;;;;5095418;28;19915;-77
2022/09/13 14:16:52;;;;;;;;;;;39.90;53.80;;;;;;5095316;28;20376;-75
2022/09/13 14:19:18;;;;;;;;;;;39.30;54.80;;;;;;5086927;28;20334;-78
2022/09/13 14:21:44;;;;;;;;;;;38.50;55.80;;;;;;5095237;28;19908;-77
2022/09/13 14:24:21;;;;;;;;;;;38.70;56.20;;;;;;5095153;28;19949;-75
2022/09/13 14:26:48;;;;;;;;;;;39.40;55.30;;;;;;5095424;28;20387;-74
2022/09/13 14:29:16;;;;;;;;;;;39.10;55.60;;;;;;5095069;28;19908;-75
2022/09/13 14:31:44;;;;;;;;;;;39.70;56.00;;;;;;5095053;28;19999;-74
2022/09/13 14:34:19;;;;;;;;;;;40.90;53.50;;;;;;5095052;28;19915;-76